Strona główna
METAR-TAF:

METAR-TAF

Lotnisko :

Army Air Corps Middle Wallop

Middle Wallop, Anglia

Szerokość geograficzna: 51-09N, Długość geograficzna: 001-34W, wysokość: 91 m

Aktualna obserwacja pogody

Raport powstał 1 godzina i 5 minut temu, godzina 21:50 UTC
Wiatr 3 kt od wschód
Temperatura 8°C
Wilgotność 66%
Ciśnienie 1017 hPa
Widzialność 10 km lub więcej

METAR: EGVP 042150Z AUTO 10003KT 9999 NCD 08/02 Q1017

czas: 23:55 (22:55 UTC)


TAF: brakujący

Obserwacja i prognoza pogody dla ponad 4000 lotnisk (raport METAR i TAF).

Dostępne stacje oznaczono żółtymi i czerwonymi punktami na mapie.

Najedź kursorem aby zobaczyć nazwę stacji.

Kliknij aby zobaczyć obserwacje i prognozy pogody.

Aby zmienić mapę: kliknij na zielony przycisk z czarnym krzyżykiem, aby powiększyć; na zielony przycisk z myślnikiem, aby pomniejszyć; na zielone strzałki, aby przejść do map sąsiednich.


METAR-TAF: